createdAt,value
2023-09-29T00:01:27.703Z,81.81
2023-09-29T00:04:30.533Z,81.56
2023-09-29T00:07:33.311Z,81.37
2023-09-29T00:10:36.873Z,81.48
2023-09-29T00:13:41.116Z,81.62
2023-09-29T00:16:43.934Z,81.67
2023-09-29T00:19:46.661Z,81.32
2023-09-29T00:22:49.380Z,81.46
2023-09-29T00:25:52.068Z,81.67
2023-09-29T00:28:57.261Z,81.74
2023-09-29T00:32:00.134Z,81.75
2023-09-29T00:35:05.333Z,81.74
2023-09-29T00:38:08.216Z,82.31
2023-09-29T00:41:11.125Z,83.24
2023-09-29T00:44:15.309Z,83.57
2023-09-29T00:47:18.266Z,83.41
2023-09-29T00:50:22.464Z,82.70
2023-09-29T00:53:25.554Z,82.73
2023-09-29T00:56:29.524Z,82.80
2023-09-29T00:59:35.286Z,82.22
2023-09-29T01:02:38.645Z,82.30
2023-09-29T01:05:44.074Z,82.56
2023-09-29T01:08:47.215Z,82.51
2023-09-29T01:11:50.486Z,82.42
2023-09-29T01:14:54.650Z,82.95
2023-09-29T01:17:57.578Z,83.04
2023-09-29T01:21:00.465Z,83.08
2023-09-29T01:24:07.158Z,83.68
2023-09-29T01:27:09.856Z,83.65
2023-09-29T01:30:14.828Z,83.63
2023-09-29T01:33:20.698Z,83.14
2023-09-29T01:36:23.430Z,82.88
2023-09-29T01:39:28.301Z,82.77
2023-09-29T01:42:31.010Z,83.08
2023-09-29T01:45:35.057Z,83.09
2023-09-29T01:48:37.935Z,82.87
2023-09-29T01:51:40.766Z,82.75
2023-09-29T01:54:45.776Z,82.59
2023-09-29T01:57:49.642Z,82.13
2023-09-29T02:00:52.451Z,82.05
2023-09-29T02:03:55.322Z,81.91
2023-09-29T02:06:58.314Z,81.75
2023-09-29T02:10:02.454Z,81.75
2023-09-29T02:13:06.584Z,82.42
2023-09-29T02:16:15.726Z,82.86
2023-09-29T02:19:18.685Z,82.52
2023-09-29T02:22:22.068Z,81.98
2023-09-29T02:25:27.549Z,81.44
2023-09-29T02:28:32.165Z,80.90
2023-09-29T02:31:37.421Z,80.35
2023-09-29T02:34:40.397Z,80.20
2023-09-29T02:37:43.699Z,80.18
2023-09-29T02:40:48.214Z,79.87
2023-09-29T02:43:50.953Z,79.39
2023-09-29T02:46:53.878Z,78.79
2023-09-29T02:49:59.166Z,78.16
2023-09-29T02:53:06.346Z,78.22
2023-09-29T02:56:12.938Z,78.36
2023-09-29T02:59:16.688Z,78.31
2023-09-29T03:02:19.464Z,77.90
2023-09-29T03:05:23.172Z,78.36
2023-09-29T03:08:26.223Z,78.16
2023-09-29T03:11:30.824Z,78.41
2023-09-29T03:14:33.851Z,78.42
2023-09-29T03:17:38.269Z,78.37
2023-09-29T03:20:41.384Z,78.71
2023-09-29T03:23:44.725Z,78.70
2023-09-29T03:26:50.521Z,78.41
2023-09-29T03:29:53.330Z,78.21
2023-09-29T03:32:57.163Z,78.21
2023-09-29T03:36:00.317Z,78.10
2023-09-29T03:39:06.241Z,78.40
2023-09-29T03:42:10.368Z,78.66
2023-09-29T03:45:15.434Z,78.83
2023-09-29T03:48:18.664Z,78.66
2023-09-29T03:51:24.997Z,79.11
2023-09-29T03:54:28.002Z,80.02
2023-09-29T03:57:33.060Z,80.40
2023-09-29T04:00:36.068Z,80.33
2023-09-29T04:03:39.131Z,80.48
2023-09-29T04:06:42.015Z,80.70
2023-09-29T04:09:44.862Z,80.46
2023-09-29T04:12:49.763Z,80.43
2023-09-29T04:15:52.714Z,80.80
2023-09-29T04:18:55.947Z,80.80
2023-09-29T04:21:59.022Z,81.97
2023-09-29T04:25:01.771Z,81.46
2023-09-29T04:28:06.433Z,81.87
2023-09-29T04:31:09.229Z,81.87
2023-09-29T04:34:12.288Z,81.79
2023-09-29T04:37:15.734Z,81.66
2023-09-29T04:40:19.418Z,81.76
2023-09-29T04:43:23.489Z,81.60
2023-09-29T04:46:26.429Z,81.59
2023-09-29T04:49:29.506Z,81.59
2023-09-29T04:52:32.313Z,81.96
2023-09-29T04:55:35.099Z,82.05
2023-09-29T04:58:39.196Z,82.46
2023-09-29T05:01:41.926Z,82.28
2023-09-29T05:04:45.721Z,82.13
2023-09-29T05:07:48.497Z,82.21
2023-09-29T05:10:51.198Z,82.32
2023-09-29T05:13:57.260Z,82.36
2023-09-29T05:17:01.056Z,82.34
2023-09-29T05:20:06.234Z,82.54
2023-09-29T05:23:08.997Z,82.85
2023-09-29T05:26:11.896Z,83.04
2023-09-29T05:29:16.157Z,82.61
2023-09-29T05:32:18.820Z,82.63
2023-09-29T05:35:21.565Z,82.48
2023-09-29T05:38:24.497Z,83.07
2023-09-29T05:41:27.260Z,83.32
2023-09-29T05:44:31.370Z,83.00
2023-09-29T05:47:34.244Z,83.01
2023-09-29T05:50:37.155Z,82.73
2023-09-29T05:53:40.973Z,82.51
2023-09-29T05:56:43.773Z,82.93
2023-09-29T05:59:47.981Z,83.04
2023-09-29T06:02:50.893Z,82.76
2023-09-29T06:05:53.749Z,83.50
2023-09-29T06:08:56.572Z,83.50
2023-09-29T06:11:59.373Z,83.62
2023-09-29T06:15:04.005Z,84.07
2023-09-29T06:18:07.186Z,84.30
2023-09-29T06:21:10.256Z,83.42
2023-09-29T06:24:13.073Z,83.62
2023-09-29T06:27:16.353Z,83.16
2023-09-29T06:30:20.847Z,81.90
2023-09-29T06:33:23.810Z,79.56
2023-09-29T06:36:26.600Z,77.41
2023-09-29T06:39:29.411Z,75.67
2023-09-29T06:42:32.290Z,75.62
2023-09-29T06:45:56.950Z,74.64
2023-09-29T06:49:00.246Z,74.25
2023-09-29T06:52:03.201Z,74.19
2023-09-29T06:55:06.842Z,74.74
2023-09-29T06:58:09.622Z,75.35
2023-09-29T07:01:13.721Z,74.80
2023-09-29T07:04:16.787Z,73.45
2023-09-29T07:07:19.638Z,72.74
2023-09-29T07:10:22.367Z,73.22
2023-09-29T07:13:25.136Z,72.27
2023-09-29T07:16:29.834Z,72.14
2023-09-29T07:19:44.981Z,72.44
2023-09-29T07:22:48.839Z,72.05
2023-09-29T07:25:54.262Z,71.41
2023-09-29T07:29:02.304Z,71.20
2023-09-29T07:32:06.621Z,71.07
2023-09-29T07:35:10.451Z,71.07
2023-09-29T07:38:14.175Z,71.33
2023-09-29T07:41:16.921Z,71.73
2023-09-29T07:44:19.642Z,71.35
2023-09-29T07:47:23.661Z,71.02
2023-09-29T07:50:26.498Z,70.72
2023-09-29T07:53:29.199Z,70.47
2023-09-29T07:56:31.890Z,70.36
2023-09-29T07:59:34.724Z,68.91
2023-09-29T08:02:39.168Z,69.30
2023-09-29T08:05:41.975Z,68.97
2023-09-29T08:08:45.040Z,67.94
2023-09-29T08:11:47.896Z,68.42
2023-09-29T08:14:51.592Z,67.26
2023-09-29T08:17:55.811Z,66.60
2023-09-29T08:20:58.613Z,66.90
2023-09-29T08:24:04.046Z,66.33
2023-09-29T08:27:07.612Z,66.19
2023-09-29T08:30:11.442Z,66.44
2023-09-29T08:33:22.926Z,66.36
2023-09-29T08:36:35.698Z,66.30
2023-09-29T08:39:40.131Z,66.09
2023-09-29T08:42:50.967Z,65.54
2023-09-29T08:45:58.611Z,65.50
2023-09-29T08:49:05.336Z,64.62
2023-09-29T08:52:10.584Z,63.91
2023-09-29T08:55:14.377Z,62.83
2023-09-29T08:58:17.113Z,62.64
2023-09-29T09:01:22.597Z,63.53
2023-09-29T09:04:28.573Z,60.56
2023-09-29T09:07:32.819Z,59.73
2023-09-29T09:10:36.817Z,59.88
2023-09-29T09:13:39.582Z,58.36
2023-09-29T09:16:42.353Z,56.89
2023-09-29T09:19:52.302Z,56.94
2023-09-29T09:22:59.811Z,53.43
2023-09-29T09:26:13.078Z,52.48
2023-09-29T09:29:18.055Z,50.75
2023-09-29T09:32:27.938Z,51.24
2023-09-29T09:35:35.689Z,49.88
2023-09-29T09:38:39.114Z,49.57
2023-09-29T09:41:44.513Z,49.25
2023-09-29T09:44:47.327Z,49.57
2023-09-29T09:47:51.242Z,50.57
2023-09-29T09:50:59.855Z,50.17
2023-09-29T09:54:04.470Z,50.76
2023-09-29T09:57:12.814Z,50.66
2023-09-29T10:00:16.137Z,49.72
2023-09-29T10:03:20.022Z,49.20
2023-09-29T10:06:26.558Z,49.29
2023-09-29T10:09:29.290Z,49.01
2023-09-29T10:12:33.251Z,47.89
2023-09-29T10:15:36.431Z,47.83
2023-09-29T10:18:39.266Z,48.30
2023-09-29T10:21:46.465Z,47.66
2023-09-29T10:24:49.468Z,48.05
2023-09-29T10:28:01.037Z,48.26
2023-09-29T10:31:10.822Z,46.87
2023-09-29T10:34:21.256Z,46.76
2023-09-29T10:37:27.316Z,45.55
2023-09-29T10:40:33.462Z,43.91
2023-09-29T10:43:37.335Z,43.27
2023-09-29T10:46:51.898Z,42.71
2023-09-29T10:49:56.478Z,42.70
2023-09-29T10:53:00.578Z,42.54
2023-09-29T10:56:05.060Z,42.00
2023-09-29T10:59:11.027Z,41.75
2023-09-29T11:02:14.317Z,41.58
2023-09-29T11:05:18.123Z,41.03
2023-09-29T11:08:32.329Z,40.98
2023-09-29T11:11:37.192Z,42.07
2023-09-29T11:14:41.401Z,41.58
2023-09-29T11:17:46.630Z,41.28
2023-09-29T11:20:53.011Z,41.21
2023-09-29T11:23:57.887Z,41.36
2023-09-29T11:27:02.235Z,41.29
2023-09-29T11:30:07.694Z,41.21
2023-09-29T11:33:12.136Z,40.88
2023-09-29T11:36:16.561Z,40.92
2023-09-29T11:39:23.482Z,40.36
2023-09-29T11:42:27.539Z,39.77
2023-09-29T11:45:30.423Z,40.04
2023-09-29T11:48:33.320Z,40.76
2023-09-29T11:51:36.831Z,40.39
2023-09-29T11:54:41.899Z,38.83
2023-09-29T11:57:44.770Z,39.70
2023-09-29T12:00:49.076Z,39.06
2023-09-29T12:03:52.667Z,38.82
2023-09-29T12:06:55.626Z,38.65
2023-09-29T12:10:00.585Z,38.80
2023-09-29T12:13:05.668Z,39.68
2023-09-29T12:16:10.832Z,40.33
2023-09-29T12:19:14.198Z,40.06
2023-09-29T12:22:17.188Z,40.98
2023-09-29T12:25:21.317Z,40.28
2023-09-29T12:28:24.076Z,41.29
2023-09-29T12:31:26.922Z,39.65
2023-09-29T12:34:33.448Z,40.99
2023-09-29T12:37:36.196Z,40.24
2023-09-29T12:40:40.499Z,40.64
2023-09-29T12:43:44.540Z,41.13
2023-09-29T12:46:47.846Z,40.48
2023-09-29T12:49:51.729Z,39.73
2023-09-29T12:52:54.490Z,39.40
2023-09-29T12:55:59.411Z,39.42
2023-09-29T12:59:02.243Z,37.84
2023-09-29T13:02:05.350Z,37.10
2023-09-29T13:05:10.929Z,37.04
2023-09-29T13:08:13.758Z,38.32
2023-09-29T13:11:19.350Z,38.98
2023-09-29T13:14:23.957Z,40.56
2023-09-29T13:17:26.943Z,40.45
2023-09-29T13:20:29.734Z,41.17
2023-09-29T13:23:32.696Z,40.62
2023-09-29T13:26:37.162Z,41.95
2023-09-29T13:29:40.035Z,41.48
2023-09-29T13:32:43.096Z,41.94
2023-09-29T13:35:45.993Z,42.39
2023-09-29T13:38:49.386Z,42.79
2023-09-29T13:41:54.092Z,43.32
2023-09-29T13:44:57.224Z,42.76
2023-09-29T13:48:02.432Z,42.02
2023-09-29T13:51:06.259Z,42.77
2023-09-29T13:54:09.548Z,42.08
2023-09-29T13:57:13.691Z,41.52
2023-09-29T14:00:19.445Z,42.46
2023-09-29T14:03:22.406Z,42.37
2023-09-29T14:06:25.437Z,43.89
2023-09-29T14:09:28.795Z,43.95
2023-09-29T14:12:37.394Z,43.99
2023-09-29T14:15:40.354Z,44.33
2023-09-29T14:18:44.105Z,45.02
2023-09-29T14:21:48.696Z,45.30
2023-09-29T14:24:51.552Z,46.98
2023-09-29T14:27:55.658Z,48.08
2023-09-29T14:30:58.398Z,50.29
2023-09-29T14:34:01.303Z,51.35
2023-09-29T14:37:05.070Z,52.80
2023-09-29T14:40:09.822Z,53.75
2023-09-29T14:43:14.048Z,54.68
2023-09-29T14:46:17.865Z,55.04
2023-09-29T14:49:20.930Z,55.89
2023-09-29T14:52:23.676Z,56.85
2023-09-29T14:55:27.657Z,57.31
2023-09-29T14:58:31.755Z,58.17
2023-09-29T15:01:34.488Z,58.57
2023-09-29T15:04:55.487Z,59.31
2023-09-29T15:07:59.484Z,60.07
2023-09-29T15:11:03.475Z,60.09
2023-09-29T15:14:08.124Z,59.52
2023-09-29T15:17:10.903Z,60.07
2023-09-29T15:20:16.336Z,60.96
2023-09-29T15:23:19.954Z,60.35
2023-09-29T15:26:23.334Z,60.52
2023-09-29T15:29:27.460Z,60.81
2023-09-29T15:32:30.286Z,60.05
2023-09-29T15:35:36.012Z,59.98
2023-09-29T15:38:40.446Z,59.57
2023-09-29T15:41:43.171Z,60.05
2023-09-29T15:44:47.521Z,60.10
2023-09-29T15:47:50.554Z,59.81
2023-09-29T15:50:56.329Z,59.90
2023-09-29T15:54:00.193Z,59.02
2023-09-29T15:57:03.346Z,58.72
2023-09-29T16:00:09.521Z,58.33
2023-09-29T16:03:12.900Z,58.82
2023-09-29T16:06:15.869Z,58.54
2023-09-29T16:09:18.621Z,59.02
2023-09-29T16:12:21.509Z,59.48
2023-09-29T16:15:26.002Z,60.29
2023-09-29T16:18:29.624Z,59.73
2023-09-29T16:21:32.775Z,60.51
2023-09-29T16:24:36.270Z,60.03
2023-09-29T16:27:39.106Z,59.50
2023-09-29T16:30:43.942Z,58.72
2023-09-29T16:33:47.065Z,58.46
2023-09-29T16:36:50.056Z,58.76
2023-09-29T16:39:52.898Z,58.15
2023-09-29T16:42:56.562Z,58.74
2023-09-29T16:46:01.002Z,58.55
2023-09-29T16:49:04.309Z,59.39
2023-09-29T16:52:07.907Z,58.85
2023-09-29T16:55:12.148Z,59.74
2023-09-29T16:58:14.994Z,59.62
2023-09-29T17:01:19.996Z,58.87
2023-09-29T17:04:22.870Z,59.08
2023-09-29T17:07:25.962Z,58.84
2023-09-29T17:10:32.040Z,58.66
2023-09-29T17:13:36.493Z,58.47
2023-09-29T17:16:41.008Z,58.35
2023-09-29T17:19:45.151Z,58.60
2023-09-29T17:22:48.030Z,58.73
2023-09-29T17:25:50.912Z,59.19
2023-09-29T17:28:53.800Z,58.81
2023-09-29T17:31:58.016Z,59.19
2023-09-29T17:35:02.098Z,59.23
2023-09-29T17:38:05.345Z,59.51
2023-09-29T17:41:10.753Z,59.67
2023-09-29T17:44:15.033Z,59.87
2023-09-29T17:47:19.345Z,60.04
2023-09-29T17:50:22.313Z,59.71
2023-09-29T17:53:25.429Z,59.99
2023-09-29T17:56:28.525Z,60.22
2023-09-29T17:59:33.530Z,60.16
2023-09-29T18:02:37.766Z,60.35
2023-09-29T18:05:40.706Z,60.05
2023-09-29T18:08:43.768Z,60.28
2023-09-29T18:11:46.874Z,60.49
2023-09-29T18:14:50.232Z,61.07
2023-09-29T18:17:54.859Z,61.45
2023-09-29T18:21:01.002Z,61.89
2023-09-29T18:24:06.750Z,61.79
2023-09-29T18:27:10.226Z,61.69
2023-09-29T18:30:13.813Z,61.08
2023-09-29T18:33:18.309Z,61.24
2023-09-29T18:36:21.294Z,61.05
2023-09-29T18:39:24.235Z,61.09
2023-09-29T18:42:27.291Z,61.32
2023-09-29T18:45:30.765Z,61.31
2023-09-29T18:48:35.180Z,61.89
2023-09-29T18:51:38.967Z,61.57
2023-09-29T18:54:42.047Z,61.90
2023-09-29T18:57:44.753Z,62.32
2023-09-29T19:00:47.657Z,62.39
2023-09-29T19:03:51.840Z,62.42
2023-09-29T19:06:54.902Z,62.59
2023-09-29T19:09:58.192Z,62.70
2023-09-29T19:13:01.442Z,62.80
2023-09-29T19:16:06.877Z,62.84
2023-09-29T19:19:11.756Z,63.05
2023-09-29T19:22:14.535Z,63.28
2023-09-29T19:25:18.447Z,63.61
2023-09-29T19:28:21.404Z,63.85
2023-09-29T19:31:26.902Z,63.93
2023-09-29T19:34:31.406Z,64.49
2023-09-29T19:37:34.302Z,64.95
2023-09-29T19:40:37.137Z,65.14
2023-09-29T19:43:39.994Z,65.28
2023-09-29T19:46:43.201Z,65.64
2023-09-29T19:49:47.646Z,65.68
2023-09-29T19:52:50.574Z,66.04
2023-09-29T19:55:53.692Z,65.65
2023-09-29T19:58:56.618Z,66.05
2023-09-29T20:02:00.288Z,66.46
2023-09-29T20:05:04.833Z,66.53
2023-09-29T20:08:07.889Z,66.85
2023-09-29T20:11:11.059Z,67.17
2023-09-29T20:14:15.658Z,67.49
2023-09-29T20:17:21.114Z,67.51
2023-09-29T20:20:25.616Z,67.76
2023-09-29T20:23:30.018Z,67.82
2023-09-29T20:26:35.892Z,68.24
2023-09-29T20:29:39.431Z,68.82
2023-09-29T20:32:42.334Z,69.13
2023-09-29T20:35:47.776Z,69.70
2023-09-29T20:38:50.882Z,69.93
2023-09-29T20:41:53.719Z,70.32
2023-09-29T20:44:56.617Z,70.39
2023-09-29T20:48:00.662Z,70.30
2023-09-29T20:51:05.222Z,70.75
2023-09-29T20:54:08.237Z,71.06
2023-09-29T20:57:11.096Z,71.19
2023-09-29T21:00:14.674Z,71.55
2023-09-29T21:03:17.707Z,71.36
2023-09-29T21:06:21.945Z,71.17
2023-09-29T21:09:25.013Z,71.81
2023-09-29T21:12:28.070Z,71.88
2023-09-29T21:15:30.966Z,72.25
2023-09-29T21:18:33.840Z,72.09
2023-09-29T21:21:38.655Z,72.30
2023-09-29T21:24:41.767Z,72.31
2023-09-29T21:27:44.747Z,72.24
2023-09-29T21:30:47.837Z,72.43
2023-09-29T21:33:51.223Z,72.48
2023-09-29T21:36:55.632Z,72.05
2023-09-29T21:39:58.499Z,72.28
2023-09-29T21:43:01.275Z,72.25
2023-09-29T21:46:04.234Z,72.52
2023-09-29T21:49:07.434Z,72.63
2023-09-29T21:52:11.622Z,72.95
2023-09-29T21:55:14.805Z,72.85
2023-09-29T21:58:17.736Z,72.52
2023-09-29T22:01:21.241Z,72.93
2023-09-29T22:04:24.403Z,72.85
2023-09-29T22:07:28.735Z,73.20
2023-09-29T22:10:32.846Z,73.24
2023-09-29T22:13:35.620Z,73.28
2023-09-29T22:16:38.448Z,73.59
2023-09-29T22:19:42.795Z,73.29
2023-09-29T22:22:47.217Z,73.90
2023-09-29T22:25:50.318Z,73.60
2023-09-29T22:28:53.207Z,73.80
2023-09-29T22:31:56.347Z,73.88
2023-09-29T22:35:00.395Z,74.03
2023-09-29T22:38:05.623Z,74.20
2023-09-29T22:41:08.712Z,73.99
2023-09-29T22:44:12.471Z,73.61
2023-09-29T22:47:15.626Z,73.50
2023-09-29T22:50:18.867Z,73.51
2023-09-29T22:53:24.264Z,73.14
2023-09-29T22:56:28.645Z,73.47
2023-09-29T22:59:31.764Z,73.22
2023-09-29T23:02:34.770Z,73.79
2023-09-29T23:05:38.340Z,73.92
2023-09-29T23:08:42.831Z,74.04
2023-09-29T23:11:45.805Z,74.33
2023-09-29T23:14:50.914Z,74.65
2023-09-29T23:17:55.845Z,74.85
2023-09-29T23:20:58.827Z,74.94
2023-09-29T23:24:02.979Z,74.67
2023-09-29T23:27:05.875Z,74.65
2023-09-29T23:30:10.484Z,74.72
2023-09-29T23:33:13.573Z,75.10
2023-09-29T23:36:20.664Z,74.67
2023-09-29T23:39:25.077Z,74.63
2023-09-29T23:42:28.991Z,74.67
2023-09-29T23:45:32.250Z,75.16
2023-09-29T23:48:35.124Z,75.16
2023-09-29T23:51:38.035Z,75.41
2023-09-29T23:54:42.593Z,75.00
2023-09-29T23:57:45.857Z,75.34
